sensor_id;sensor_type;location;lat;lon;timestamp;P1;durP1;ratioP1;P2;durP2;ratioP2
64085;SDS011;50333;47.436;21.390;2022-10-18T00:01:03;21.62;;;15.02;;
64085;SDS011;50333;47.436;21.390;2022-10-18T00:03:33;20.40;;;15.30;;
64085;SDS011;50333;47.436;21.390;2022-10-18T00:06:01;20.00;;;15.40;;
64085;SDS011;50333;47.436;21.390;2022-10-18T00:08:30;23.05;;;14.75;;
64085;SDS011;50333;47.436;21.390;2022-10-18T00:10:58;22.73;;;14.80;;
64085;SDS011;50333;47.436;21.390;2022-10-18T00:13:25;23.95;;;16.27;;
64085;SDS011;50333;47.436;21.390;2022-10-18T00:15:54;21.40;;;14.95;;
64085;SDS011;50333;47.436;21.390;2022-10-18T00:18:24;22.75;;;14.48;;
64085;SDS011;50333;47.436;21.390;2022-10-18T00:21:00;24.23;;;15.30;;
64085;SDS011;50333;47.436;21.390;2022-10-18T00:23:30;24.77;;;14.50;;
64085;SDS011;50333;47.436;21.390;2022-10-18T00:28:44;27.60;;;15.40;;
64085;SDS011;50333;47.436;21.390;2022-10-18T00:31:14;24.90;;;15.70;;
64085;SDS011;50333;47.436;21.390;2022-10-18T00:33:51;24.37;;;15.15;;
64085;SDS011;50333;47.436;21.390;2022-10-18T00:36:26;26.73;;;14.73;;
64085;SDS011;50333;47.436;21.390;2022-10-18T00:38:55;21.98;;;14.45;;
64085;SDS011;50333;47.436;21.390;2022-10-18T00:41:24;21.83;;;14.87;;
64085;SDS011;50333;47.436;21.390;2022-10-18T00:43:59;24.00;;;15.07;;
64085;SDS011;50333;47.436;21.390;2022-10-18T00:46:34;23.62;;;15.15;;
64085;SDS011;50333;47.436;21.390;2022-10-18T00:49:06;26.62;;;15.25;;
64085;SDS011;50333;47.436;21.390;2022-10-18T00:51:41;21.33;;;14.60;;
64085;SDS011;50333;47.436;21.390;2022-10-18T00:54:13;19.65;;;14.48;;
64085;SDS011;50333;47.436;21.390;2022-10-18T00:56:43;25.75;;;14.90;;
64085;SDS011;50333;47.436;21.390;2022-10-18T00:59:12;22.00;;;14.43;;
64085;SDS011;50333;47.436;21.390;2022-10-18T01:01:41;21.23;;;14.63;;
64085;SDS011;50333;47.436;21.390;2022-10-18T01:04:10;23.52;;;15.77;;
64085;SDS011;50333;47.436;21.390;2022-10-18T01:07:13;21.77;;;14.73;;
64085;SDS011;50333;47.436;21.390;2022-10-18T01:19:03;23.77;;;14.30;;
64085;SDS011;50333;47.436;21.390;2022-10-18T01:27:34;22.40;;;14.75;;
64085;SDS011;50333;47.436;21.390;2022-10-18T01:38:30;22.92;;;14.25;;
64085;SDS011;50333;47.436;21.390;2022-10-18T01:41:01;22.52;;;15.35;;
64085;SDS011;50333;47.436;21.390;2022-10-18T01:43:30;22.42;;;15.73;;
64085;SDS011;50333;47.436;21.390;2022-10-18T01:46:00;22.80;;;14.70;;
64085;SDS011;50333;47.436;21.390;2022-10-18T01:48:30;22.77;;;15.27;;
64085;SDS011;50333;47.436;21.390;2022-10-18T01:50:59;24.02;;;15.90;;
64085;SDS011;50333;47.436;21.390;2022-10-18T01:53:30;19.98;;;14.73;;
64085;SDS011;50333;47.436;21.390;2022-10-18T01:56:04;23.60;;;16.10;;
64085;SDS011;50333;47.436;21.390;2022-10-18T01:58:54;25.05;;;15.52;;
64085;SDS011;50333;47.436;21.390;2022-10-18T02:01:32;24.15;;;15.30;;
64085;SDS011;50333;47.436;21.390;2022-10-18T02:09:47;30.23;;;17.48;;
64085;SDS011;50333;47.436;21.390;2022-10-18T02:12:27;32.97;;;18.27;;
64085;SDS011;50333;47.436;21.390;2022-10-18T02:14:58;24.95;;;17.12;;
64085;SDS011;50333;47.436;21.390;2022-10-18T02:17:29;26.63;;;17.87;;
64085;SDS011;50333;47.436;21.390;2022-10-18T02:19:58;24.17;;;16.12;;
64085;SDS011;50333;47.436;21.390;2022-10-18T02:22:31;22.87;;;15.52;;
64085;SDS011;50333;47.436;21.390;2022-10-18T02:25:01;22.65;;;15.48;;
64085;SDS011;50333;47.436;21.390;2022-10-18T02:27:32;26.33;;;16.00;;
64085;SDS011;50333;47.436;21.390;2022-10-18T02:30:01;23.83;;;15.60;;
64085;SDS011;50333;47.436;21.390;2022-10-18T02:32:32;22.60;;;16.62;;
64085;SDS011;50333;47.436;21.390;2022-10-18T02:37:44;24.20;;;15.85;;
64085;SDS011;50333;47.436;21.390;2022-10-18T02:40:15;24.65;;;16.08;;
64085;SDS011;50333;47.436;21.390;2022-10-18T02:42:45;26.00;;;16.37;;
64085;SDS011;50333;47.436;21.390;2022-10-18T02:45:15;24.23;;;16.90;;
64085;SDS011;50333;47.436;21.390;2022-10-18T02:47:43;25.05;;;15.32;;
64085;SDS011;50333;47.436;21.390;2022-10-18T02:50:14;21.13;;;16.10;;
64085;SDS011;50333;47.436;21.390;2022-10-18T02:52:41;24.50;;;16.05;;
64085;SDS011;50333;47.436;21.390;2022-10-18T02:55:09;21.42;;;15.32;;
64085;SDS011;50333;47.436;21.390;2022-10-18T02:57:37;26.45;;;15.63;;
64085;SDS011;50333;47.436;21.390;2022-10-18T03:00:05;23.40;;;15.60;;
64085;SDS011;50333;47.436;21.390;2022-10-18T03:02:34;25.85;;;15.93;;
64085;SDS011;50333;47.436;21.390;2022-10-18T03:05:02;27.35;;;16.25;;
64085;SDS011;50333;47.436;21.390;2022-10-18T03:07:30;23.75;;;16.40;;
64085;SDS011;50333;47.436;21.390;2022-10-18T03:09:59;25.02;;;16.42;;
64085;SDS011;50333;47.436;21.390;2022-10-18T03:12:26;23.23;;;16.87;;
64085;SDS011;50333;47.436;21.390;2022-10-18T03:14:54;22.83;;;17.27;;
64085;SDS011;50333;47.436;21.390;2022-10-18T03:17:22;22.80;;;16.75;;
64085;SDS011;50333;47.436;21.390;2022-10-18T03:19:49;25.05;;;16.45;;
64085;SDS011;50333;47.436;21.390;2022-10-18T03:22:17;26.50;;;16.42;;
64085;SDS011;50333;47.436;21.390;2022-10-18T03:24:45;20.05;;;16.30;;
64085;SDS011;50333;47.436;21.390;2022-10-18T03:27:12;23.65;;;16.37;;
64085;SDS011;50333;47.436;21.390;2022-10-18T03:29:42;29.75;;;16.30;;
64085;SDS011;50333;47.436;21.390;2022-10-18T03:32:10;21.60;;;15.88;;
64085;SDS011;50333;47.436;21.390;2022-10-18T03:34:37;24.27;;;16.70;;
64085;SDS011;50333;47.436;21.390;2022-10-18T03:37:05;23.75;;;17.17;;
64085;SDS011;50333;47.436;21.390;2022-10-18T03:39:33;26.92;;;16.15;;
64085;SDS011;50333;47.436;21.390;2022-10-18T03:42:00;19.48;;;15.65;;
64085;SDS011;50333;47.436;21.390;2022-10-18T03:44:28;21.85;;;15.93;;
64085;SDS011;50333;47.436;21.390;2022-10-18T03:46:56;29.12;;;16.42;;
64085;SDS011;50333;47.436;21.390;2022-10-18T03:49:24;22.35;;;16.27;;
64085;SDS011;50333;47.436;21.390;2022-10-18T03:51:51;20.17;;;15.48;;
64085;SDS011;50333;47.436;21.390;2022-10-18T03:54:19;22.25;;;14.98;;
64085;SDS011;50333;47.436;21.390;2022-10-18T03:56:47;28.48;;;15.85;;
64085;SDS011;50333;47.436;21.390;2022-10-18T03:59:14;28.27;;;16.30;;
64085;SDS011;50333;47.436;21.390;2022-10-18T04:01:43;27.83;;;15.27;;
64085;SDS011;50333;47.436;21.390;2022-10-18T04:04:11;20.12;;;15.27;;
64085;SDS011;50333;47.436;21.390;2022-10-18T04:06:39;18.90;;;14.45;;
64085;SDS011;50333;47.436;21.390;2022-10-18T04:09:07;22.50;;;15.82;;
64085;SDS011;50333;47.436;21.390;2022-10-18T04:11:36;17.33;;;14.65;;
64085;SDS011;50333;47.436;21.390;2022-10-18T04:14:04;25.42;;;15.85;;
64085;SDS011;50333;47.436;21.390;2022-10-18T04:16:32;25.02;;;17.70;;
64085;SDS011;50333;47.436;21.390;2022-10-18T04:19:00;28.12;;;16.62;;
64085;SDS011;50333;47.436;21.390;2022-10-18T04:21:28;24.65;;;16.23;;
64085;SDS011;50333;47.436;21.390;2022-10-18T04:23:55;26.83;;;16.70;;
64085;SDS011;50333;47.436;21.390;2022-10-18T04:26:23;28.38;;;16.80;;
64085;SDS011;50333;47.436;21.390;2022-10-18T04:28:51;28.48;;;16.25;;
64085;SDS011;50333;47.436;21.390;2022-10-18T04:31:19;22.23;;;15.63;;
64085;SDS011;50333;47.436;21.390;2022-10-18T04:33:47;22.52;;;16.37;;
64085;SDS011;50333;47.436;21.390;2022-10-18T04:36:14;25.58;;;16.33;;
64085;SDS011;50333;47.436;21.390;2022-10-18T04:38:42;23.70;;;16.73;;
64085;SDS011;50333;47.436;21.390;2022-10-18T04:41:10;22.92;;;16.20;;
64085;SDS011;50333;47.436;21.390;2022-10-18T04:43:37;26.23;;;16.90;;
64085;SDS011;50333;47.436;21.390;2022-10-18T04:46:05;27.23;;;17.55;;
64085;SDS011;50333;47.436;21.390;2022-10-18T04:48:33;28.50;;;17.65;;
64085;SDS011;50333;47.436;21.390;2022-10-18T04:51:01;31.35;;;16.77;;
64085;SDS011;50333;47.436;21.390;2022-10-18T04:53:28;38.58;;;18.17;;
64085;SDS011;50333;47.436;21.390;2022-10-18T04:55:56;25.90;;;16.08;;
64085;SDS011;50333;47.436;21.390;2022-10-18T04:58:23;23.08;;;15.82;;
64085;SDS011;50333;47.436;21.390;2022-10-18T05:00:51;40.45;;;17.45;;
64085;SDS011;50333;47.436;21.390;2022-10-18T05:03:19;148.27;;;17.45;;
64085;SDS011;50333;47.436;21.390;2022-10-18T05:05:47;69.90;;;17.25;;
64085;SDS011;50333;47.436;21.390;2022-10-18T05:08:31;111.05;;;17.15;;
64085;SDS011;50333;47.436;21.390;2022-10-18T05:11:00;85.32;;;17.75;;
64085;SDS011;50333;47.436;21.390;2022-10-18T05:13:28;72.75;;;16.17;;
64085;SDS011;50333;47.436;21.390;2022-10-18T05:15:56;89.22;;;15.82;;
64085;SDS011;50333;47.436;21.390;2022-10-18T05:18:26;34.22;;;16.98;;
64085;SDS011;50333;47.436;21.390;2022-10-18T05:20:54;58.30;;;15.75;;
64085;SDS011;50333;47.436;21.390;2022-10-18T05:23:23;41.75;;;15.73;;
64085;SDS011;50333;47.436;21.390;2022-10-18T05:25:50;27.98;;;15.18;;
64085;SDS011;50333;47.436;21.390;2022-10-18T05:28:18;25.17;;;14.77;;
64085;SDS011;50333;47.436;21.390;2022-10-18T05:31:07;23.70;;;14.25;;
64085;SDS011;50333;47.436;21.390;2022-10-18T05:33:36;22.77;;;13.85;;
64085;SDS011;50333;47.436;21.390;2022-10-18T05:36:06;23.77;;;14.63;;
64085;SDS011;50333;47.436;21.390;2022-10-18T05:38:36;23.02;;;13.43;;
64085;SDS011;50333;47.436;21.390;2022-10-18T05:41:06;17.73;;;14.00;;
64085;SDS011;50333;47.436;21.390;2022-10-18T05:43:34;17.35;;;13.43;;
64085;SDS011;50333;47.436;21.390;2022-10-18T05:46:02;17.80;;;12.13;;
64085;SDS011;50333;47.436;21.390;2022-10-18T05:48:36;22.85;;;12.40;;
64085;SDS011;50333;47.436;21.390;2022-10-18T05:51:03;16.37;;;11.50;;
64085;SDS011;50333;47.436;21.390;2022-10-18T05:53:31;16.10;;;11.85;;
64085;SDS011;50333;47.436;21.390;2022-10-18T05:56:05;16.17;;;11.80;;
64085;SDS011;50333;47.436;21.390;2022-10-18T05:58:33;35.75;;;12.10;;
64085;SDS011;50333;47.436;21.390;2022-10-18T06:01:01;22.83;;;12.25;;
64085;SDS011;50333;47.436;21.390;2022-10-18T06:03:31;19.45;;;12.60;;
64085;SDS011;50333;47.436;21.390;2022-10-18T06:06:03;18.58;;;12.80;;
64085;SDS011;50333;47.436;21.390;2022-10-18T06:08:33;21.08;;;12.30;;
64085;SDS011;50333;47.436;21.390;2022-10-18T06:11:05;57.03;;;12.77;;
64085;SDS011;50333;47.436;21.390;2022-10-18T06:13:38;16.52;;;11.70;;
64085;SDS011;50333;47.436;21.390;2022-10-18T06:16:09;15.68;;;11.80;;
64085;SDS011;50333;47.436;21.390;2022-10-18T06:18:46;17.35;;;12.45;;
64085;SDS011;50333;47.436;21.390;2022-10-18T06:21:18;17.85;;;11.85;;
64085;SDS011;50333;47.436;21.390;2022-10-18T06:23:49;17.85;;;12.10;;
64085;SDS011;50333;47.436;21.390;2022-10-18T06:26:18;17.58;;;12.05;;
64085;SDS011;50333;47.436;21.390;2022-10-18T06:28:46;15.18;;;11.52;;
64085;SDS011;50333;47.436;21.390;2022-10-18T06:31:14;16.42;;;11.68;;
64085;SDS011;50333;47.436;21.390;2022-10-18T06:33:42;15.88;;;12.32;;
64085;SDS011;50333;47.436;21.390;2022-10-18T06:36:11;23.20;;;14.60;;
64085;SDS011;50333;47.436;21.390;2022-10-18T06:38:41;24.52;;;13.70;;
64085;SDS011;50333;47.436;21.390;2022-10-18T06:41:08;15.20;;;11.75;;
64085;SDS011;50333;47.436;21.390;2022-10-18T06:43:36;16.45;;;12.48;;
64085;SDS011;50333;47.436;21.390;2022-10-18T06:46:04;17.33;;;12.45;;
64085;SDS011;50333;47.436;21.390;2022-10-18T06:48:34;15.02;;;12.52;;
64085;SDS011;50333;47.436;21.390;2022-10-18T06:51:03;20.88;;;13.20;;
64085;SDS011;50333;47.436;21.390;2022-10-18T06:53:33;56.10;;;39.83;;
64085;SDS011;50333;47.436;21.390;2022-10-18T06:56:15;31.37;;;22.60;;
64085;SDS011;50333;47.436;21.390;2022-10-18T06:58:42;21.55;;;13.43;;
64085;SDS011;50333;47.436;21.390;2022-10-18T07:01:11;17.12;;;13.38;;
64085;SDS011;50333;47.436;21.390;2022-10-18T07:03:42;21.83;;;13.35;;
64085;SDS011;50333;47.436;21.390;2022-10-18T07:06:12;17.02;;;12.63;;
64085;SDS011;50333;47.436;21.390;2022-10-18T07:08:44;19.20;;;12.18;;
64085;SDS011;50333;47.436;21.390;2022-10-18T07:11:13;26.77;;;13.38;;
64085;SDS011;50333;47.436;21.390;2022-10-18T07:13:48;36.35;;;28.65;;
64085;SDS011;50333;47.436;21.390;2022-10-18T07:16:17;36.85;;;27.37;;
64085;SDS011;50333;47.436;21.390;2022-10-18T07:18:49;30.02;;;14.25;;
64085;SDS011;50333;47.436;21.390;2022-10-18T07:21:18;18.73;;;13.95;;
64085;SDS011;50333;47.436;21.390;2022-10-18T07:23:48;24.60;;;14.23;;
64085;SDS011;50333;47.436;21.390;2022-10-18T07:26:18;24.45;;;14.52;;
64085;SDS011;50333;47.436;21.390;2022-10-18T07:28:58;20.90;;;13.88;;
64085;SDS011;50333;47.436;21.390;2022-10-18T07:31:28;21.37;;;13.50;;
64085;SDS011;50333;47.436;21.390;2022-10-18T07:33:57;18.40;;;13.70;;
64085;SDS011;50333;47.436;21.390;2022-10-18T07:36:24;19.02;;;14.65;;
64085;SDS011;50333;47.436;21.390;2022-10-18T07:38:52;23.12;;;14.23;;
64085;SDS011;50333;47.436;21.390;2022-10-18T07:41:20;28.15;;;13.65;;
64085;SDS011;50333;47.436;21.390;2022-10-18T07:43:49;20.95;;;13.57;;
64085;SDS011;50333;47.436;21.390;2022-10-18T07:46:18;16.65;;;14.00;;
64085;SDS011;50333;47.436;21.390;2022-10-18T07:48:47;17.70;;;15.13;;
64085;SDS011;50333;47.436;21.390;2022-10-18T07:51:16;18.98;;;15.18;;
64085;SDS011;50333;47.436;21.390;2022-10-18T07:53:44;23.83;;;15.43;;
64085;SDS011;50333;47.436;21.390;2022-10-18T07:56:14;21.80;;;14.70;;
64085;SDS011;50333;47.436;21.390;2022-10-18T07:58:43;20.62;;;14.80;;
64085;SDS011;50333;47.436;21.390;2022-10-18T08:01:12;24.92;;;15.43;;
64085;SDS011;50333;47.436;21.390;2022-10-18T08:03:41;22.70;;;15.15;;
64085;SDS011;50333;47.436;21.390;2022-10-18T08:06:10;21.95;;;14.70;;
64085;SDS011;50333;47.436;21.390;2022-10-18T08:08:39;19.95;;;14.10;;
64085;SDS011;50333;47.436;21.390;2022-10-18T08:11:08;20.52;;;14.57;;
64085;SDS011;50333;47.436;21.390;2022-10-18T08:13:38;22.40;;;14.82;;
64085;SDS011;50333;47.436;21.390;2022-10-18T08:16:07;21.80;;;14.87;;
64085;SDS011;50333;47.436;21.390;2022-10-18T08:21:05;20.83;;;14.77;;
64085;SDS011;50333;47.436;21.390;2022-10-18T08:23:34;21.67;;;13.82;;
64085;SDS011;50333;47.436;21.390;2022-10-18T08:26:03;24.02;;;15.05;;
64085;SDS011;50333;47.436;21.390;2022-10-18T08:28:32;17.98;;;13.62;;
64085;SDS011;50333;47.436;21.390;2022-10-18T08:33:32;21.23;;;14.38;;
64085;SDS011;50333;47.436;21.390;2022-10-18T08:36:03;16.25;;;13.57;;
64085;SDS011;50333;47.436;21.390;2022-10-18T08:38:33;25.00;;;14.85;;
64085;SDS011;50333;47.436;21.390;2022-10-18T08:44:22;23.73;;;14.50;;
64085;SDS011;50333;47.436;21.390;2022-10-18T08:47:02;27.27;;;14.43;;
64085;SDS011;50333;47.436;21.390;2022-10-18T08:52:15;25.00;;;15.02;;
64085;SDS011;50333;47.436;21.390;2022-10-18T08:58:24;25.10;;;14.20;;
64085;SDS011;50333;47.436;21.390;2022-10-18T09:01:02;27.98;;;15.40;;
64085;SDS011;50333;47.436;21.390;2022-10-18T09:03:59;24.67;;;15.52;;
64085;SDS011;50333;47.436;21.390;2022-10-18T09:11:30;23.58;;;13.90;;
64085;SDS011;50333;47.436;21.390;2022-10-18T09:22:11;22.13;;;12.30;;
64085;SDS011;50333;47.436;21.390;2022-10-18T09:24:53;20.37;;;11.98;;
64085;SDS011;50333;47.436;21.390;2022-10-18T09:27:29;16.42;;;11.40;;
64085;SDS011;50333;47.436;21.390;2022-10-18T09:33:09;17.42;;;11.15;;
64085;SDS011;50333;47.436;21.390;2022-10-18T09:38:26;16.65;;;12.02;;
64085;SDS011;50333;47.436;21.390;2022-10-18T09:41:04;18.52;;;10.90;;
64085;SDS011;50333;47.436;21.390;2022-10-18T09:46:24;22.00;;;12.10;;
64085;SDS011;50333;47.436;21.390;2022-10-18T09:49:03;25.42;;;16.23;;
64085;SDS011;50333;47.436;21.390;2022-10-18T09:51:42;20.70;;;10.57;;
64085;SDS011;50333;47.436;21.390;2022-10-18T09:57:10;13.52;;;11.68;;
64085;SDS011;50333;47.436;21.390;2022-10-18T09:59:47;14.07;;;9.73;;
64085;SDS011;50333;47.436;21.390;2022-10-18T10:02:20;12.23;;;9.52;;
64085;SDS011;50333;47.436;21.390;2022-10-18T10:04:50;14.38;;;9.57;;
64085;SDS011;50333;47.436;21.390;2022-10-18T10:07:27;14.57;;;8.95;;
64085;SDS011;50333;47.436;21.390;2022-10-18T10:13:01;19.37;;;8.80;;
64085;SDS011;50333;47.436;21.390;2022-10-18T10:15:31;15.05;;;8.82;;
64085;SDS011;50333;47.436;21.390;2022-10-18T10:18:18;18.12;;;8.00;;
64085;SDS011;50333;47.436;21.390;2022-10-18T10:20:51;13.73;;;8.32;;
64085;SDS011;50333;47.436;21.390;2022-10-18T10:26:29;12.00;;;8.43;;
64085;SDS011;50333;47.436;21.390;2022-10-18T10:28:59;16.67;;;8.32;;
64085;SDS011;50333;47.436;21.390;2022-10-18T10:31:30;16.37;;;9.05;;
64085;SDS011;50333;47.436;21.390;2022-10-18T10:34:01;21.62;;;7.55;;
64085;SDS011;50333;47.436;21.390;2022-10-18T10:36:29;10.70;;;7.60;;
64085;SDS011;50333;47.436;21.390;2022-10-18T10:39:12;8.95;;;6.68;;
64085;SDS011;50333;47.436;21.390;2022-10-18T10:41:48;14.32;;;6.53;;
64085;SDS011;50333;47.436;21.390;2022-10-18T10:44:25;9.95;;;6.70;;
64085;SDS011;50333;47.436;21.390;2022-10-18T10:46:57;8.10;;;6.57;;
64085;SDS011;50333;47.436;21.390;2022-10-18T10:50:08;7.53;;;6.32;;
64085;SDS011;50333;47.436;21.390;2022-10-18T10:52:17;17.35;;;8.48;;
64085;SDS011;50333;47.436;21.390;2022-10-18T10:54:55;11.32;;;6.78;;
64085;SDS011;50333;47.436;21.390;2022-10-18T10:57:45;10.05;;;7.47;;
64085;SDS011;50333;47.436;21.390;2022-10-18T11:03:14;11.02;;;7.22;;
64085;SDS011;50333;47.436;21.390;2022-10-18T11:05:59;11.02;;;7.55;;
64085;SDS011;50333;47.436;21.390;2022-10-18T11:08:34;8.57;;;6.22;;
64085;SDS011;50333;47.436;21.390;2022-10-18T11:11:20;10.60;;;6.55;;
64085;SDS011;50333;47.436;21.390;2022-10-18T11:16:55;11.98;;;6.60;;
64085;SDS011;50333;47.436;21.390;2022-10-18T11:19:41;8.52;;;5.68;;
64085;SDS011;50333;47.436;21.390;2022-10-18T11:22:28;8.65;;;5.95;;
64085;SDS011;50333;47.436;21.390;2022-10-18T11:25:03;7.62;;;4.90;;
64085;SDS011;50333;47.436;21.390;2022-10-18T11:27:35;8.20;;;4.80;;
64085;SDS011;50333;47.436;21.390;2022-10-18T11:30:35;6.62;;;4.82;;
64085;SDS011;50333;47.436;21.390;2022-10-18T11:36:37;5.05;;;4.60;;
64085;SDS011;50333;47.436;21.390;2022-10-18T11:42:11;10.88;;;4.62;;
64085;SDS011;50333;47.436;21.390;2022-10-18T11:44:58;10.43;;;4.72;;
64085;SDS011;50333;47.436;21.390;2022-10-18T12:04:13;8.45;;;4.60;;
64085;SDS011;50333;47.436;21.390;2022-10-18T12:06:49;11.07;;;4.78;;
64085;SDS011;50333;47.436;21.390;2022-10-18T12:11:57;7.55;;;4.70;;
64085;SDS011;50333;47.436;21.390;2022-10-18T12:14:31;11.48;;;4.87;;
64085;SDS011;50333;47.436;21.390;2022-10-18T12:17:06;19.10;;;5.07;;
64085;SDS011;50333;47.436;21.390;2022-10-18T12:20:16;9.13;;;4.70;;
64085;SDS011;50333;47.436;21.390;2022-10-18T12:25:26;7.18;;;4.80;;
64085;SDS011;50333;47.436;21.390;2022-10-18T12:33:27;7.03;;;4.62;;
64085;SDS011;50333;47.436;21.390;2022-10-18T12:41:01;8.57;;;4.82;;
64085;SDS011;50333;47.436;21.390;2022-10-18T12:43:30;7.87;;;4.55;;
64085;SDS011;50333;47.436;21.390;2022-10-18T12:46:04;8.20;;;4.68;;
64085;SDS011;50333;47.436;21.390;2022-10-18T12:48:40;6.57;;;4.80;;
64085;SDS011;50333;47.436;21.390;2022-10-18T12:53:47;5.80;;;4.72;;
64085;SDS011;50333;47.436;21.390;2022-10-18T13:02:07;7.05;;;4.40;;
64085;SDS011;50333;47.436;21.390;2022-10-18T13:04:47;8.48;;;4.78;;
64085;SDS011;50333;47.436;21.390;2022-10-18T13:07:19;8.85;;;4.57;;
64085;SDS011;50333;47.436;21.390;2022-10-18T13:12:57;8.55;;;4.65;;
64085;SDS011;50333;47.436;21.390;2022-10-18T13:16:49;9.80;;;4.62;;
64085;SDS011;50333;47.436;21.390;2022-10-18T13:35:44;7.50;;;4.97;;
64085;SDS011;50333;47.436;21.390;2022-10-18T13:41:20;7.47;;;4.47;;
64085;SDS011;50333;47.436;21.390;2022-10-18T14:06:19;10.82;;;4.80;;
64085;SDS011;50333;47.436;21.390;2022-10-18T14:12:10;5.40;;;4.50;;
64085;SDS011;50333;47.436;21.390;2022-10-18T14:14:54;15.35;;;4.37;;
64085;SDS011;50333;47.436;21.390;2022-10-18T14:17:34;6.32;;;4.40;;
64085;SDS011;50333;47.436;21.390;2022-10-18T14:20:15;12.00;;;5.55;;
64085;SDS011;50333;47.436;21.390;2022-10-18T14:25:44;6.43;;;4.37;;
64085;SDS011;50333;47.436;21.390;2022-10-18T14:30:56;9.70;;;5.28;;
64085;SDS011;50333;47.436;21.390;2022-10-18T14:33:35;9.73;;;4.45;;
64085;SDS011;50333;47.436;21.390;2022-10-18T14:38:55;8.43;;;5.20;;
64085;SDS011;50333;47.436;21.390;2022-10-18T14:41:26;9.93;;;4.80;;
64085;SDS011;50333;47.436;21.390;2022-10-18T14:47:12;17.35;;;5.20;;
64085;SDS011;50333;47.436;21.390;2022-10-18T14:49:51;19.42;;;5.40;;
64085;SDS011;50333;47.436;21.390;2022-10-18T14:52:22;12.05;;;4.53;;
64085;SDS011;50333;47.436;21.390;2022-10-18T14:55:01;9.60;;;4.60;;
64085;SDS011;50333;47.436;21.390;2022-10-18T14:57:31;7.12;;;4.43;;
64085;SDS011;50333;47.436;21.390;2022-10-18T15:00:04;9.75;;;4.68;;
64085;SDS011;50333;47.436;21.390;2022-10-18T15:02:36;11.75;;;5.20;;
64085;SDS011;50333;47.436;21.390;2022-10-18T15:07:41;13.90;;;5.28;;
64085;SDS011;50333;47.436;21.390;2022-10-18T15:10:15;11.65;;;6.12;;
64085;SDS011;50333;47.436;21.390;2022-10-18T15:12:45;11.07;;;6.20;;
64085;SDS011;50333;47.436;21.390;2022-10-18T15:15:34;13.90;;;5.60;;
64085;SDS011;50333;47.436;21.390;2022-10-18T15:18:03;12.60;;;5.25;;
64085;SDS011;50333;47.436;21.390;2022-10-18T15:20:33;10.88;;;5.68;;
64085;SDS011;50333;47.436;21.390;2022-10-18T15:26:04;21.10;;;6.25;;
64085;SDS011;50333;47.436;21.390;2022-10-18T15:28:41;19.27;;;5.45;;
64085;SDS011;50333;47.436;21.390;2022-10-18T15:31:29;14.93;;;4.43;;
64085;SDS011;50333;47.436;21.390;2022-10-18T15:36:40;20.85;;;4.70;;
64085;SDS011;50333;47.436;21.390;2022-10-18T15:39:15;20.88;;;5.00;;
64085;SDS011;50333;47.436;21.390;2022-10-18T15:41:52;18.08;;;5.12;;
64085;SDS011;50333;47.436;21.390;2022-10-18T15:44:26;15.40;;;4.83;;
64085;SDS011;50333;47.436;21.390;2022-10-18T15:47:19;10.88;;;4.37;;
64085;SDS011;50333;47.436;21.390;2022-10-18T15:49:49;13.57;;;4.72;;
64085;SDS011;50333;47.436;21.390;2022-10-18T15:52:30;18.48;;;5.50;;
64085;SDS011;50333;47.436;21.390;2022-10-18T15:58:04;19.85;;;6.32;;
64085;SDS011;50333;47.436;21.390;2022-10-18T16:00:55;25.35;;;6.25;;
64085;SDS011;50333;47.436;21.390;2022-10-18T16:03:25;28.08;;;6.30;;
64085;SDS011;50333;47.436;21.390;2022-10-18T16:05:56;29.85;;;6.65;;
64085;SDS011;50333;47.436;21.390;2022-10-18T16:08:27;18.58;;;7.65;;
64085;SDS011;50333;47.436;21.390;2022-10-18T16:10:57;26.08;;;6.65;;
64085;SDS011;50333;47.436;21.390;2022-10-18T16:13:25;19.62;;;7.22;;
64085;SDS011;50333;47.436;21.390;2022-10-18T16:15:53;26.55;;;9.05;;
64085;SDS011;50333;47.436;21.390;2022-10-18T16:18:26;49.45;;;15.70;;
64085;SDS011;50333;47.436;21.390;2022-10-18T16:20:54;52.08;;;15.75;;
64085;SDS011;50333;47.436;21.390;2022-10-18T16:23:23;38.10;;;14.30;;
64085;SDS011;50333;47.436;21.390;2022-10-18T16:25:55;30.33;;;12.55;;
64085;SDS011;50333;47.436;21.390;2022-10-18T16:28:24;35.03;;;11.12;;
64085;SDS011;50333;47.436;21.390;2022-10-18T16:30:56;39.83;;;12.65;;
64085;SDS011;50333;47.436;21.390;2022-10-18T16:33:26;48.05;;;13.77;;
64085;SDS011;50333;47.436;21.390;2022-10-18T16:35:54;40.55;;;9.90;;
64085;SDS011;50333;47.436;21.390;2022-10-18T16:38:26;20.88;;;8.88;;
64085;SDS011;50333;47.436;21.390;2022-10-18T16:41:02;41.03;;;10.60;;
64085;SDS011;50333;47.436;21.390;2022-10-18T16:43:33;28.12;;;11.23;;
64085;SDS011;50333;47.436;21.390;2022-10-18T16:46:02;32.00;;;12.65;;
64085;SDS011;50333;47.436;21.390;2022-10-18T16:48:30;25.70;;;12.23;;
64085;SDS011;50333;47.436;21.390;2022-10-18T16:50:58;34.20;;;13.10;;
64085;SDS011;50333;47.436;21.390;2022-10-18T16:53:26;32.13;;;12.95;;
64085;SDS011;50333;47.436;21.390;2022-10-18T16:55:55;32.08;;;14.02;;
64085;SDS011;50333;47.436;21.390;2022-10-18T16:58:29;37.28;;;14.60;;
64085;SDS011;50333;47.436;21.390;2022-10-18T17:00:58;30.12;;;13.43;;
64085;SDS011;50333;47.436;21.390;2022-10-18T17:03:29;37.03;;;14.38;;
64085;SDS011;50333;47.436;21.390;2022-10-18T17:05:59;34.00;;;13.15;;
64085;SDS011;50333;47.436;21.390;2022-10-18T17:08:27;37.33;;;19.20;;
64085;SDS011;50333;47.436;21.390;2022-10-18T17:10:56;43.03;;;21.40;;
64085;SDS011;50333;47.436;21.390;2022-10-18T17:13:25;30.33;;;16.90;;
64085;SDS011;50333;47.436;21.390;2022-10-18T17:18:25;40.00;;;14.13;;
64085;SDS011;50333;47.436;21.390;2022-10-18T17:20:56;24.17;;;12.98;;
64085;SDS011;50333;47.436;21.390;2022-10-18T17:23:26;36.13;;;13.50;;
64085;SDS011;50333;47.436;21.390;2022-10-18T17:25:54;29.23;;;15.25;;
64085;SDS011;50333;47.436;21.390;2022-10-18T17:28:33;35.70;;;15.15;;
64085;SDS011;50333;47.436;21.390;2022-10-18T17:31:01;33.78;;;14.45;;
64085;SDS011;50333;47.436;21.390;2022-10-18T17:33:32;36.28;;;16.92;;
64085;SDS011;50333;47.436;21.390;2022-10-18T17:36:00;34.05;;;17.33;;
64085;SDS011;50333;47.436;21.390;2022-10-18T17:38:28;36.92;;;20.30;;
64085;SDS011;50333;47.436;21.390;2022-10-18T17:40:56;54.53;;;24.35;;
64085;SDS011;50333;47.436;21.390;2022-10-18T17:43:31;49.97;;;23.10;;
64085;SDS011;50333;47.436;21.390;2022-10-18T17:45:59;50.58;;;24.98;;
64085;SDS011;50333;47.436;21.390;2022-10-18T17:48:26;50.12;;;26.90;;
64085;SDS011;50333;47.436;21.390;2022-10-18T17:50:55;54.15;;;26.48;;
64085;SDS011;50333;47.436;21.390;2022-10-18T17:53:23;56.90;;;27.23;;
64085;SDS011;50333;47.436;21.390;2022-10-18T17:55:57;51.37;;;27.23;;
64085;SDS011;50333;47.436;21.390;2022-10-18T17:58:29;43.15;;;26.50;;
64085;SDS011;50333;47.436;21.390;2022-10-18T18:01:06;56.58;;;26.87;;
64085;SDS011;50333;47.436;21.390;2022-10-18T18:03:42;47.72;;;27.95;;
64085;SDS011;50333;47.436;21.390;2022-10-18T18:08:45;50.72;;;28.15;;
64085;SDS011;50333;47.436;21.390;2022-10-18T18:11:13;69.07;;;28.23;;